Forside
METAR-TAF:

METAR-TAF

Lufthavne :

Shanghai Pudong International Airport

Shanghai-Pudong, Kina

Breddekreds: 31-07N, længdekreds: 121-46E, højde: 4 m

Aktuelle vejr

Denne rapport blev lavet for 15 minutter siden, kl. 02:30 UTC
Vind 10 kt fra nordøst
Temperatur 8°C
Fugtighed 76%
Tryk 1027 hPa
Sigt: 7000 m

METAR: ZSPD 210230Z 04005MPS 7000 NSC 08/04 Q1027 NOSIG

Tid: 10:45 (02:45 UTC)

Vejrudsigter

Denne rapport blev lavet for 5 timer og 29 minutter siden, kl. 21:16 UTC
Foreløbig gælder fra 21 på 00 UTC til 21 på 24 UTC
Vind 10 kt fra nordnordøst
Sigt: 6000 m
Brudte skyer i en højde af 1300 ft
ændring
fra 21 på 10 UTC til 21 på 12 UTC
Brudte skyer i en højde af 600 ft
Overskyet i en højde af 3300 ft

TAF: ZSPD 202116Z 2100/2124 03005MPS 6000 BKN013 TX08/2106Z TN04/2121Z BECMG 2110/2112 BKN006 OVC033

Vejrobservationer og prognoser fra mere end 4000 lufthavne (METAR og TAF).

De gule og røde prikker repræsenterer de meteorologiske stationer.

Flyt musen over at se navnet på stationen.

Så klik over at se vejr observationer og prognoser.

At skifte det kort: Klik på de grønne knapper med et sort kors for at zoome ind; på den grønne knap med en bindestreg for at zoome ud; eller på de grønne pile for tilstødende kort.


METAR-TAF: